Time,TemperatureF,DewpointF,PressureIn,WindDirection,WindDirectionDegrees,WindSpeedMPH,WindSpeedGustMPH,Humidity,HourlyPrecipIn,Conditions,Clouds,dailyrainin,SolarRadiationWatts/m^2,SoftwareType,DateUTC
2013-01-10 00:03:00,30.9,23.0,30.43,NW,305,0.0,0.0,72,0.00,,,0.00,0,weatherlink.com 1.10,2013-01-10 05:03:00,
2013-01-10 00:18:00,30.3,23.0,30.44,NW,305,0.0,0.0,73,0.00,,,0.00,0,weatherlink.com 1.10,2013-01-10 05:18:00,
2013-01-10 00:45:00,30.2,22.0,30.45,NW,305,0.0,3.0,72,0.00,,,0.00,0,weatherlink.com 1.10,2013-01-10 05:45:00,
2013-01-10 01:03:00,30.2,22.0,30.46,NW,305,0.0,2.0,72,0.00,,,0.00,0,weatherlink.com 1.10,2013-01-10 06:03:00,
2013-01-10 01:18:00,30.0,22.0,30.46,NW,305,0.0,0.0,73,0.00,,,0.00,0,weatherlink.com 1.10,2013-01-10 06:18:00,
2013-01-10 01:33:00,29.6,22.0,30.46,NW,305,0.0,0.0,74,0.00,,,0.00,0,weatherlink.com 1.10,2013-01-10 06:33:00,
2013-01-10 01:48:00,29.0,22.0,30.46,NW,305,0.0,0.0,76,0.00,,,0.00,0,weatherlink.com 1.10,2013-01-10 06:48:00,
2013-01-10 02:03:00,28.5,23.0,30.46,NW,305,0.0,0.0,79,0.00,,,0.00,0,weatherlink.com 1.10,2013-01-10 07:03:00,
2013-01-10 02:18:00,28.2,23.0,30.46,NW,305,0.0,0.0,80,0.00,,,0.00,0,weatherlink.com 1.10,2013-01-10 07:18:00,
2013-01-10 02:33:00,27.9,22.0,30.46,NW,305,0.0,0.0,79,0.00,,,0.00,0,weatherlink.com 1.10,2013-01-10 07:33:00,
2013-01-10 02:48:00,27.7,23.0,30.47,NW,305,0.0,1.0,81,0.00,,,0.00,0,weatherlink.com 1.10,2013-01-10 07:48:00,
2013-01-10 03:03:00,27.5,22.0,30.46,NW,305,0.0,1.0,80,0.00,,,0.00,0,weatherlink.com 1.10,2013-01-10 08:03:00,
2013-01-10 03:18:00,27.6,22.0,30.45,NW,305,0.0,4.0,79,0.00,,,0.00,0,weatherlink.com 1.10,2013-01-10 08:18:00,
2013-01-10 03:33:00,27.5,22.0,30.45,NW,305,0.0,0.0,81,0.00,,,0.00,0,weatherlink.com 1.10,2013-01-10 08:33:00,
2013-01-10 03:48:00,27.1,23.0,30.45,NW,305,0.0,0.0,83,0.00,,,0.00,0,weatherlink.com 1.10,2013-01-10 08:48:00,
2013-01-10 04:03:00,26.9,22.0,30.45,NW,305,0.0,0.0,83,0.00,,,0.00,0,weatherlink.com 1.10,2013-01-10 09:03:00,
2013-01-10 04:18:00,26.5,22.0,30.45,NW,305,0.0,0.0,83,0.00,,,0.00,0,weatherlink.com 1.10,2013-01-10 09:18:00,
2013-01-10 04:33:00,26.4,22.0,30.45,NW,305,0.0,0.0,84,0.00,,,0.00,0,weatherlink.com 1.10,2013-01-10 09:33:00,
2013-01-10 04:48:00,26.1,22.0,30.45,NW,305,0.0,0.0,84,0.00,,,0.00,0,weatherlink.com 1.10,2013-01-10 09:48:00,
2013-01-10 05:03:00,25.8,22.0,30.45,NW,305,0.0,0.0,85,0.00,,,0.00,0,weatherlink.com 1.10,2013-01-10 10:03:00,
2013-01-10 05:18:00,25.6,22.0,30.44,NW,305,0.0,0.0,85,0.00,,,0.00,0,weatherlink.com 1.10,2013-01-10 10:18:00,
2013-01-10 05:33:00,25.6,21.0,30.44,NW,305,0.0,2.0,84,0.00,,,0.00,0,weatherlink.com 1.10,2013-01-10 10:33:00,
2013-01-10 05:48:00,25.4,22.0,30.43,NW,305,1.0,3.0,85,0.00,,,0.00,0,weatherlink.com 1.10,2013-01-10 10:48:00,
2013-01-10 06:03:00,25.7,22.0,30.44,NW,305,1.0,3.0,84,0.00,,,0.00,0,weatherlink.com 1.10,2013-01-10 11:03:00,
2013-01-10 06:18:00,26.2,22.0,30.44,NW,305,0.0,2.0,84,0.00,,,0.00,0,weatherlink.com 1.10,2013-01-10 11:18:00,
2013-01-10 06:33:00,26.1,22.0,30.44,NW,305,0.0,0.0,84,0.00,,,0.00,0,weatherlink.com 1.10,2013-01-10 11:33:00,
2013-01-10 06:49:00,26.1,22.0,30.44,NW,305,0.0,0.0,85,0.00,,,0.00,0,weatherlink.com 1.10,2013-01-10 11:49:00,
2013-01-10 07:04:00,26.1,22.0,30.45,NW,305,1.0,1.0,84,0.00,,,0.00,0,weatherlink.com 1.10,2013-01-10 12:04:00,
2013-01-10 07:19:00,26.0,22.0,30.45,NW,305,0.0,2.0,84,0.00,,,0.00,0,weatherlink.com 1.10,2013-01-10 12:19:00,
2013-01-10 07:34:00,25.7,22.0,30.45,NW,305,0.0,0.0,85,0.00,,,0.00,0,weatherlink.com 1.10,2013-01-10 12:34:00,
2013-01-10 07:49:00,26.2,22.0,30.45,NW,305,2.0,2.0,84,0.00,,,0.00,0,weatherlink.com 1.10,2013-01-10 12:49:00,
2013-01-10 08:04:00,26.7,22.0,30.45,NW,305,1.0,2.0,83,0.00,,,0.00,0,weatherlink.com 1.10,2013-01-10 13:04:00,
2013-01-10 08:19:00,26.9,22.0,30.45,NW,305,0.0,2.0,83,0.00,,,0.00,9,weatherlink.com 1.10,2013-01-10 13:19:00,
2013-01-10 08:34:00,27.6,23.0,30.45,NW,305,2.0,3.0,83,0.00,,,0.00,26,weatherlink.com 1.10,2013-01-10 13:34:00,
2013-01-10 08:49:00,28.7,24.0,30.45,NW,305,2.0,2.0,81,0.00,,,0.00,51,weatherlink.com 1.10,2013-01-10 13:49:00,
2013-01-10 09:04:00,29.9,24.0,30.45,NE,54,2.0,4.0,80,0.00,,,0.00,72,weatherlink.com 1.10,2013-01-10 14:04:00,
2013-01-10 09:19:00,30.9,25.0,30.44,East,86,5.0,6.0,79,0.00,,,0.00,91,weatherlink.com 1.10,2013-01-10 14:19:00,
2013-01-10 09:34:00,32.1,26.0,30.44,East,88,3.0,5.0,78,0.00,,,0.00,141,weatherlink.com 1.10,2013-01-10 14:34:00,
2013-01-10 09:53:00,33.4,27.0,30.43,ENE,66,4.0,7.0,77,0.00,,,0.00,181,weatherlink.com 1.10,2013-01-10 14:53:00,
2013-01-10 10:04:00,34.7,28.0,30.43,East,85,7.0,8.0,76,0.00,,,0.00,315,weatherlink.com 1.10,2013-01-10 15:04:00,
2013-01-10 10:19:00,35.3,28.0,30.42,ESE,106,11.0,11.0,76,0.00,,,0.00,241,weatherlink.com 1.10,2013-01-10 15:19:00,
2013-01-10 10:35:00,35.7,29.0,30.42,ESE,122,4.0,11.0,76,0.00,,,0.00,127,weatherlink.com 1.10,2013-01-10 15:35:00,
2013-01-10 10:49:00,35.9,29.0,30.42,ESE,119,3.0,8.0,76,0.00,,,0.00,162,weatherlink.com 1.10,2013-01-10 15:49:00,
2013-01-10 11:04:00,36.4,29.0,30.42,East,89,6.0,13.0,74,0.00,,,0.00,193,weatherlink.com 1.10,2013-01-10 16:04:00,
2013-01-10 11:20:00,36.8,29.0,30.41,ESE,114,9.0,12.0,73,0.00,,,0.00,227,weatherlink.com 1.10,2013-01-10 16:20:00,
2013-01-10 11:34:00,37.1,29.0,30.40,East,99,2.0,13.0,72,0.00,,,0.00,257,weatherlink.com 1.10,2013-01-10 16:34:00,
2013-01-10 11:49:00,37.5,29.0,30.39,East,81,5.0,10.0,72,0.00,,,0.00,445,weatherlink.com 1.10,2013-01-10 16:49:00,
2013-01-10 12:04:00,38.2,29.0,30.38,East,83,8.0,17.0,70,0.00,,,0.00,269,weatherlink.com 1.10,2013-01-10 17:04:00,
2013-01-10 12:20:00,38.4,29.0,30.37,ESE,118,13.0,13.0,70,0.00,,,0.00,211,weatherlink.com 1.10,2013-01-10 17:20:00,
2013-01-10 12:35:00,38.1,29.0,30.35,ESE,114,10.0,15.0,70,0.00,,,0.00,197,weatherlink.com 1.10,2013-01-10 17:35:00,
2013-01-10 12:50:00,38.3,29.0,30.34,ESE,122,5.0,12.0,70,0.00,,,0.00,223,weatherlink.com 1.10,2013-01-10 17:50:00,
2013-01-10 13:05:00,38.7,30.0,30.33,ESE,118,8.0,12.0,70,0.00,,,0.00,200,weatherlink.com 1.10,2013-01-10 18:05:00,
2013-01-10 13:20:00,38.6,29.0,30.32,SSE,147,10.0,15.0,69,0.00,,,0.00,200,weatherlink.com 1.10,2013-01-10 18:20:00,
2013-01-10 13:35:00,38.3,29.0,30.31,SE,125,7.0,12.0,69,0.00,,,0.00,167,weatherlink.com 1.10,2013-01-10 18:35:00,
2013-01-10 13:50:00,38.5,30.0,30.30,ENE,75,2.0,10.0,71,0.00,,,0.00,169,weatherlink.com 1.10,2013-01-10 18:50:00,
2013-01-10 14:05:00,38.6,30.0,30.29,East,92,8.0,14.0,70,0.00,,,0.00,171,weatherlink.com 1.10,2013-01-10 19:05:00,
2013-01-10 14:20:00,38.8,30.0,30.28,East,97,7.0,16.0,70,0.00,,,0.00,185,weatherlink.com 1.10,2013-01-10 19:20:00,
2013-01-10 14:35:00,39.1,30.0,30.27,SE,137,5.0,13.0,69,0.00,,,0.00,181,weatherlink.com 1.10,2013-01-10 19:35:00,
2013-01-10 14:50:00,39.2,30.0,30.26,ESE,103,4.0,12.0,69,0.00,,,0.00,165,weatherlink.com 1.10,2013-01-10 19:50:00,
2013-01-10 15:05:00,39.1,30.0,30.24,East,87,6.0,14.0,69,0.00,,,0.00,160,weatherlink.com 1.10,2013-01-10 20:05:00,
2013-01-10 15:20:00,39.3,30.0,30.23,East,97,9.0,16.0,69,0.00,,,0.00,118,weatherlink.com 1.10,2013-01-10 20:20:00,
2013-01-10 15:35:00,39.2,30.0,30.23,ENE,64,5.0,13.0,70,0.00,,,0.00,83,weatherlink.com 1.10,2013-01-10 20:35:00,
2013-01-10 16:05:00,39.1,30.0,30.22,East,81,6.0,10.0,70,0.00,,,0.00,54,weatherlink.com 1.10,2013-01-10 21:05:00,
2013-01-10 16:20:00,39.3,29.0,30.21,ESE,112,2.0,16.0,68,0.00,,,0.00,53,weatherlink.com 1.10,2013-01-10 21:20:00,
2013-01-10 16:35:00,39.5,30.0,30.22,SE,125,9.0,9.0,68,0.00,,,0.00,39,weatherlink.com 1.10,2013-01-10 21:35:00,
2013-01-10 16:50:00,39.7,29.0,30.22,ESE,106,1.0,12.0,66,0.00,,,0.00,19,weatherlink.com 1.10,2013-01-10 21:50:00,
2013-01-10 17:05:00,39.6,30.0,30.21,ESE,116,8.0,13.0,68,0.00,,,0.00,9,weatherlink.com 1.10,2013-01-10 22:05:00,
2013-01-10 17:20:00,39.3,30.0,30.20,SE,131,9.0,12.0,69,0.00,,,0.00,0,weatherlink.com 1.10,2013-01-10 22:20:00,
2013-01-10 17:35:00,39.1,30.0,30.19,ESE,110,12.0,17.0,70,0.00,,,0.00,0,weatherlink.com 1.10,2013-01-10 22:35:00,
2013-01-10 17:50:00,38.7,31.0,30.18,SSE,147,8.0,15.0,73,0.00,,,0.00,0,weatherlink.com 1.10,2013-01-10 22:50:00,
2013-01-10 18:20:00,38.2,32.0,30.18,SE,140,8.0,11.0,77,0.01,,,0.01,0,weatherlink.com 1.10,2013-01-10 23:20:00,
2013-01-10 18:35:00,37.8,32.0,30.16,ESE,107,5.0,16.0,79,0.01,,,0.01,0,weatherlink.com 1.10,2013-01-10 23:35:00,
2013-01-10 18:50:00,37.4,32.0,30.16,SE,135,3.0,13.0,81,0.02,,,0.02,0,weatherlink.com 1.10,2013-01-10 23:50:00,
2013-01-10 19:05:00,37.4,32.0,30.14,ESE,115,12.0,15.0,82,0.03,,,0.03,0,weatherlink.com 1.10,2013-01-11 00:05:00,
2013-01-10 19:21:00,37.4,33.0,30.13,ESE,114,7.0,17.0,83,0.02,,,0.03,0,weatherlink.com 1.10,2013-01-11 00:21:00,
2013-01-10 19:36:00,37.2,33.0,30.13,SE,129,4.0,16.0,85,0.03,,,0.04,0,weatherlink.com 1.10,2013-01-11 00:36:00,
2013-01-10 19:51:00,36.9,33.0,30.12,ESE,111,9.0,18.0,87,0.04,,,0.06,0,weatherlink.com 1.10,2013-01-11 00:51:00,
2013-01-10 20:06:00,36.4,34.0,30.10,ENE,75,4.0,16.0,90,0.05,,,0.08,0,weatherlink.com 1.10,2013-01-11 01:06:00,
2013-01-10 20:21:00,36.4,34.0,30.09,ESE,113,4.0,13.0,91,0.06,,,0.09,0,weatherlink.com 1.10,2013-01-11 01:21:00,
2013-01-10 20:36:00,36.5,34.0,30.08,ESE,118,7.0,16.0,91,0.07,,,0.11,0,weatherlink.com 1.10,2013-01-11 01:36:00,
2013-01-10 20:51:00,36.8,34.0,30.07,ENE,77,3.0,16.0,89,0.04,,,0.11,0,weatherlink.com 1.10,2013-01-11 01:51:00,
2013-01-10 21:06:00,37.0,34.0,30.06,SE,127,10.0,16.0,89,0.03,,,0.11,0,weatherlink.com 1.10,2013-01-11 02:06:00,
2013-01-10 21:21:00,36.8,34.0,30.06,ESE,122,9.0,14.0,90,0.03,,,0.12,0,weatherlink.com 1.10,2013-01-11 02:21:00,
2013-01-10 21:36:00,36.8,35.0,30.05,SE,129,10.0,16.0,91,0.01,,,0.12,0,weatherlink.com 1.10,2013-01-11 02:36:00,
2013-01-10 21:51:00,36.6,35.0,30.04,East,98,5.0,15.0,92,0.04,,,0.15,0,weatherlink.com 1.10,2013-01-11 02:51:00,
2013-01-10 22:06:00,36.4,35.0,30.03,ESE,122,5.0,15.0,93,0.11,,,0.22,0,weatherlink.com 1.10,2013-01-11 03:06:00,
2013-01-10 22:21:00,36.4,35.0,30.03,ESE,104,5.0,12.0,94,0.13,,,0.25,0,weatherlink.com 1.10,2013-01-11 03:21:00,
2013-01-10 22:36:00,36.4,35.0,30.02,ESE,109,8.0,11.0,94,0.16,,,0.28,0,weatherlink.com 1.10,2013-01-11 03:36:00,
2013-01-10 22:51:00,36.7,35.0,30.00,East,87,2.0,13.0,95,0.13,,,0.28,0,weatherlink.com 1.10,2013-01-11 03:51:00,
2013-01-10 23:06:00,37.1,36.0,30.00,SE,131,8.0,17.0,95,0.07,,,0.29,0,weatherlink.com 1.10,2013-01-11 04:06:00,
2013-01-10 23:21:00,37.4,36.0,29.99,ESE,112,4.0,14.0,95,0.06,,,0.31,0,weatherlink.com 1.10,2013-01-11 04:21:00,
2013-01-10 23:36:00,37.5,36.0,29.98,SE,137,8.0,11.0,95,0.09,,,0.37,0,weatherlink.com 1.10,2013-01-11 04:36:00,
2013-01-10 23:51:00,37.9,37.0,29.98,ESE,114,8.0,9.0,95,0.10,,,0.38,0,weatherlink.com 1.10,2013-01-11 04:51:00,